Larksville, Pennsylvania
Current Conditions -  °F | °C
As of 2:54 AM on Wednesday 22 Oct 2014 (Local Time) from KAVP Reporting Station
Light Rain Light Rain  
Wind Chill: 52°   Ceiling: 2600
Heat Index: 52°   Visibility: 9mi
Dew Point: 50°   Wind: 3mph
Humidity: 93%   Direction: 30°NNE
Pressure: 29.94"   Gusts: NA
Location:  41.2768°N, 75.8997°W
Report Text: KAVP 220654Z AUTO 03003KT 9SM -RA FEW018 OVC026 11/10 A2994 RMK AO2 RAB0558 SLP135 P0000 T01110100
Loading
Personal Weather Stations






























Interactive Weather Map
Tropical Storm Tracking
New forecast layout! Learn more

10-Day Weather Forecast

Advertisements
Track Severe Weather on mobile